sensor_id;sensor_type;location;lat;lon;timestamp;temperature;humidity
75376;HTU21D;63958;52.004;5.908;2022-12-01T00:00:06;7.11;81.85
75376;HTU21D;63958;52.004;5.908;2022-12-01T00:02:35;7.12;81.92
75376;HTU21D;63958;52.004;5.908;2022-12-01T00:05:07;7.14;81.79
75376;HTU21D;63958;52.004;5.908;2022-12-01T00:07:36;7.13;81.81
75376;HTU21D;63958;52.004;5.908;2022-12-01T00:10:08;7.13;81.78
75376;HTU21D;63958;52.004;5.908;2022-12-01T00:12:50;7.14;81.84
75376;HTU21D;63958;52.004;5.908;2022-12-01T00:15:19;7.14;81.94
75376;HTU21D;63958;52.004;5.908;2022-12-01T00:17:48;7.15;81.82
75376;HTU21D;63958;52.004;5.908;2022-12-01T00:20:19;7.16;81.81
75376;HTU21D;63958;52.004;5.908;2022-12-01T00:22:49;7.16;81.78
75376;HTU21D;63958;52.004;5.908;2022-12-01T00:25:18;7.14;81.52
75376;HTU21D;63958;52.004;5.908;2022-12-01T00:27:47;7.12;81.52
75376;HTU21D;63958;52.004;5.908;2022-12-01T00:30:18;7.10;81.68
75376;HTU21D;63958;52.004;5.908;2022-12-01T00:32:48;7.11;81.57
75376;HTU21D;63958;52.004;5.908;2022-12-01T00:35:20;7.09;81.65
75376;HTU21D;63958;52.004;5.908;2022-12-01T00:37:49;7.08;81.78
75376;HTU21D;63958;52.004;5.908;2022-12-01T00:40:18;7.08;81.89
75376;HTU21D;63958;52.004;5.908;2022-12-01T00:42:47;7.09;81.89
75376;HTU21D;63958;52.004;5.908;2022-12-01T00:45:16;7.09;81.81
75376;HTU21D;63958;52.004;5.908;2022-12-01T00:47:45;7.08;81.75
75376;HTU21D;63958;52.004;5.908;2022-12-01T00:50:14;7.08;81.82
75376;HTU21D;63958;52.004;5.908;2022-12-01T00:52:45;7.09;82.04
75376;HTU21D;63958;52.004;5.908;2022-12-01T00:55:14;7.09;82.13
75376;HTU21D;63958;52.004;5.908;2022-12-01T00:57:43;7.13;82.00
75376;HTU21D;63958;52.004;5.908;2022-12-01T01:00:14;7.12;81.84
75376;HTU21D;63958;52.004;5.908;2022-12-01T01:02:44;7.15;82.07
75376;HTU21D;63958;52.004;5.908;2022-12-01T01:05:12;7.16;82.13
75376;HTU21D;63958;52.004;5.908;2022-12-01T01:07:41;7.17;82.10
75376;HTU21D;63958;52.004;5.908;2022-12-01T01:10:13;7.19;82.16
75376;HTU21D;63958;52.004;5.908;2022-12-01T01:12:42;7.19;82.13
75376;HTU21D;63958;52.004;5.908;2022-12-01T01:15:11;7.20;82.12
75376;HTU21D;63958;52.004;5.908;2022-12-01T01:17:40;7.20;82.02
75376;HTU21D;63958;52.004;5.908;2022-12-01T01:20:10;7.20;81.91
75376;HTU21D;63958;52.004;5.908;2022-12-01T01:22:39;7.22;81.71
75376;HTU21D;63958;52.004;5.908;2022-12-01T01:25:08;7.18;81.84
75376;HTU21D;63958;52.004;5.908;2022-12-01T01:27:39;7.18;82.05
75376;HTU21D;63958;52.004;5.908;2022-12-01T01:30:10;7.20;82.09
75376;HTU21D;63958;52.004;5.908;2022-12-01T01:32:39;7.20;81.99
75376;HTU21D;63958;52.004;5.908;2022-12-01T01:35:08;7.20;81.99
75376;HTU21D;63958;52.004;5.908;2022-12-01T01:37:37;7.19;81.88
75376;HTU21D;63958;52.004;5.908;2022-12-01T01:40:07;7.18;82.02
75376;HTU21D;63958;52.004;5.908;2022-12-01T01:42:39;7.18;82.00
75376;HTU21D;63958;52.004;5.908;2022-12-01T01:45:18;7.17;81.99
75376;HTU21D;63958;52.004;5.908;2022-12-01T01:47:48;7.16;82.01
75376;HTU21D;63958;52.004;5.908;2022-12-01T01:50:21;7.14;81.81
75376;HTU21D;63958;52.004;5.908;2022-12-01T01:52:56;7.12;81.94
75376;HTU21D;63958;52.004;5.908;2022-12-01T01:55:26;7.09;81.93
75376;HTU21D;63958;52.004;5.908;2022-12-01T01:57:58;7.07;82.03
75376;HTU21D;63958;52.004;5.908;2022-12-01T02:00:28;7.04;82.03
75376;HTU21D;63958;52.004;5.908;2022-12-01T02:02:58;7.03;82.02
75376;HTU21D;63958;52.004;5.908;2022-12-01T02:05:30;7.02;82.17
75376;HTU21D;63958;52.004;5.908;2022-12-01T02:08:01;7.02;82.20
75376;HTU21D;63958;52.004;5.908;2022-12-01T02:10:36;7.03;82.18
75376;HTU21D;63958;52.004;5.908;2022-12-01T02:13:16;7.03;82.18
75376;HTU21D;63958;52.004;5.908;2022-12-01T02:15:52;7.03;82.14
75376;HTU21D;63958;52.004;5.908;2022-12-01T02:18:28;7.02;82.31
75376;HTU21D;63958;52.004;5.908;2022-12-01T02:24:04;7.01;82.42
75376;HTU21D;63958;52.004;5.908;2022-12-01T02:26:43;7.01;82.33
75376;HTU21D;63958;52.004;5.908;2022-12-01T02:29:48;7.02;82.47
75376;HTU21D;63958;52.004;5.908;2022-12-01T02:32:32;7.03;82.49
75376;HTU21D;63958;52.004;5.908;2022-12-01T02:35:10;7.05;82.58
75376;HTU21D;63958;52.004;5.908;2022-12-01T02:37:48;7.08;82.48
75376;HTU21D;63958;52.004;5.908;2022-12-01T02:40:23;7.07;82.38
75376;HTU21D;63958;52.004;5.908;2022-12-01T02:42:58;7.07;82.47
75376;HTU21D;63958;52.004;5.908;2022-12-01T02:45:35;7.08;82.47
75376;HTU21D;63958;52.004;5.908;2022-12-01T02:48:13;7.07;82.44
75376;HTU21D;63958;52.004;5.908;2022-12-01T02:50:44;7.08;82.58
75376;HTU21D;63958;52.004;5.908;2022-12-01T02:53:16;7.10;82.56
75376;HTU21D;63958;52.004;5.908;2022-12-01T02:55:47;7.09;82.60
75376;HTU21D;63958;52.004;5.908;2022-12-01T02:58:17;7.10;82.67
75376;HTU21D;63958;52.004;5.908;2022-12-01T03:00:57;7.12;82.66
75376;HTU21D;63958;52.004;5.908;2022-12-01T03:03:46;7.13;82.58
75376;HTU21D;63958;52.004;5.908;2022-12-01T03:06:23;7.13;82.68
75376;HTU21D;63958;52.004;5.908;2022-12-01T03:09:00;7.14;82.55
75376;HTU21D;63958;52.004;5.908;2022-12-01T03:11:35;7.15;82.61
75376;HTU21D;63958;52.004;5.908;2022-12-01T03:14:15;7.16;82.66
75376;HTU21D;63958;52.004;5.908;2022-12-01T03:16:49;7.17;82.50
75376;HTU21D;63958;52.004;5.908;2022-12-01T03:19:27;7.17;82.55
75376;HTU21D;63958;52.004;5.908;2022-12-01T03:22:02;7.17;82.52
75376;HTU21D;63958;52.004;5.908;2022-12-01T03:24:33;7.16;82.52
75376;HTU21D;63958;52.004;5.908;2022-12-01T03:27:04;7.16;82.52
75376;HTU21D;63958;52.004;5.908;2022-12-01T03:29:37;7.16;82.34
75376;HTU21D;63958;52.004;5.908;2022-12-01T03:32:11;7.15;82.32
75376;HTU21D;63958;52.004;5.908;2022-12-01T03:34:46;7.14;82.42
75376;HTU21D;63958;52.004;5.908;2022-12-01T03:37:20;7.15;82.06
75376;HTU21D;63958;52.004;5.908;2022-12-01T03:39:53;7.13;82.14
75376;HTU21D;63958;52.004;5.908;2022-12-01T03:42:26;7.11;82.08
75376;HTU21D;63958;52.004;5.908;2022-12-01T03:44:58;7.09;81.93
75376;HTU21D;63958;52.004;5.908;2022-12-01T03:47:29;7.07;82.18
75376;HTU21D;63958;52.004;5.908;2022-12-01T03:50:04;7.07;82.18
75376;HTU21D;63958;52.004;5.908;2022-12-01T03:52:41;7.08;82.12
75376;HTU21D;63958;52.004;5.908;2022-12-01T03:55:18;7.05;82.15
75376;HTU21D;63958;52.004;5.908;2022-12-01T03:57:53;7.05;82.20
75376;HTU21D;63958;52.004;5.908;2022-12-01T04:00:24;7.04;82.00
75376;HTU21D;63958;52.004;5.908;2022-12-01T04:02:54;7.05;82.21
75376;HTU21D;63958;52.004;5.908;2022-12-01T04:05:26;7.09;82.32
75376;HTU21D;63958;52.004;5.908;2022-12-01T04:07:55;7.11;82.30
75376;HTU21D;63958;52.004;5.908;2022-12-01T04:10:24;7.11;82.14
75376;HTU21D;63958;52.004;5.908;2022-12-01T04:12:53;7.10;81.82
75376;HTU21D;63958;52.004;5.908;2022-12-01T04:15:24;7.10;82.03
75376;HTU21D;63958;52.004;5.908;2022-12-01T04:17:54;7.09;81.89
75376;HTU21D;63958;52.004;5.908;2022-12-01T04:20:25;7.09;82.01
75376;HTU21D;63958;52.004;5.908;2022-12-01T04:22:54;7.10;81.84
75376;HTU21D;63958;52.004;5.908;2022-12-01T04:25:23;7.05;81.71
75376;HTU21D;63958;52.004;5.908;2022-12-01T04:27:52;7.04;81.86
75376;HTU21D;63958;52.004;5.908;2022-12-01T04:30:21;7.03;81.99
75376;HTU21D;63958;52.004;5.908;2022-12-01T04:32:50;7.04;81.84
75376;HTU21D;63958;52.004;5.908;2022-12-01T04:35:19;7.04;82.09
75376;HTU21D;63958;52.004;5.908;2022-12-01T04:37:50;7.07;82.08
75376;HTU21D;63958;52.004;5.908;2022-12-01T04:40:19;7.08;82.10
75376;HTU21D;63958;52.004;5.908;2022-12-01T04:42:48;7.07;81.97
75376;HTU21D;63958;52.004;5.908;2022-12-01T04:45:17;7.07;81.97
75376;HTU21D;63958;52.004;5.908;2022-12-01T04:47:46;7.08;82.06
75376;HTU21D;63958;52.004;5.908;2022-12-01T04:50:15;7.07;81.78
75376;HTU21D;63958;52.004;5.908;2022-12-01T04:52:44;7.05;81.78
75376;HTU21D;63958;52.004;5.908;2022-12-01T04:55:15;7.05;81.71
75376;HTU21D;63958;52.004;5.908;2022-12-01T04:57:44;7.03;81.71
75376;HTU21D;63958;52.004;5.908;2022-12-01T05:00:13;7.00;81.59
75376;HTU21D;63958;52.004;5.908;2022-12-01T05:02:43;6.98;81.93
75376;HTU21D;63958;52.004;5.908;2022-12-01T05:05:12;6.97;81.73
75376;HTU21D;63958;52.004;5.908;2022-12-01T05:07:41;6.97;81.81
75376;HTU21D;63958;52.004;5.908;2022-12-01T05:10:11;6.96;81.89
75376;HTU21D;63958;52.004;5.908;2022-12-01T05:12:42;6.96;81.78
75376;HTU21D;63958;52.004;5.908;2022-12-01T05:15:12;6.94;81.67
75376;HTU21D;63958;52.004;5.908;2022-12-01T05:17:41;6.91;81.63
75376;HTU21D;63958;52.004;5.908;2022-12-01T05:20:16;6.89;81.78
75376;HTU21D;63958;52.004;5.908;2022-12-01T05:23:09;6.87;81.69
75376;HTU21D;63958;52.004;5.908;2022-12-01T05:25:38;6.87;81.77
75376;HTU21D;63958;52.004;5.908;2022-12-01T05:28:10;6.87;81.82
75376;HTU21D;63958;52.004;5.908;2022-12-01T05:30:39;6.87;81.65
75376;HTU21D;63958;52.004;5.908;2022-12-01T05:33:08;6.86;81.68
75376;HTU21D;63958;52.004;5.908;2022-12-01T05:35:37;6.86;81.85
75376;HTU21D;63958;52.004;5.908;2022-12-01T05:38:06;6.85;81.60
75376;HTU21D;63958;52.004;5.908;2022-12-01T05:40:35;6.86;81.77
75376;HTU21D;63958;52.004;5.908;2022-12-01T05:43:05;6.85;81.68
75376;HTU21D;63958;52.004;5.908;2022-12-01T05:45:36;6.84;81.76
75376;HTU21D;63958;52.004;5.908;2022-12-01T05:48:05;6.85;81.65
75376;HTU21D;63958;52.004;5.908;2022-12-01T05:50:37;6.83;81.59
75376;HTU21D;63958;52.004;5.908;2022-12-01T05:53:06;6.83;81.65
75376;HTU21D;63958;52.004;5.908;2022-12-01T05:55:35;6.81;81.44
75376;HTU21D;63958;52.004;5.908;2022-12-01T05:58:04;6.79;81.73
75376;HTU21D;63958;52.004;5.908;2022-12-01T06:00:37;6.76;81.72
75376;HTU21D;63958;52.004;5.908;2022-12-01T06:03:06;6.76;81.84
75376;HTU21D;63958;52.004;5.908;2022-12-01T06:05:35;6.73;81.87
75376;HTU21D;63958;52.004;5.908;2022-12-01T06:08:04;6.73;81.78
75376;HTU21D;63958;52.004;5.908;2022-12-01T06:10:33;6.71;81.91
75376;HTU21D;63958;52.004;5.908;2022-12-01T06:13:02;6.70;81.84
75376;HTU21D;63958;52.004;5.908;2022-12-01T06:15:30;6.67;81.93
75376;HTU21D;63958;52.004;5.908;2022-12-01T06:18:02;6.67;81.99
75376;HTU21D;63958;52.004;5.908;2022-12-01T06:20:31;6.65;81.98
75376;HTU21D;63958;52.004;5.908;2022-12-01T06:23:00;6.65;82.00
75376;HTU21D;63958;52.004;5.908;2022-12-01T06:25:29;6.63;81.98
75376;HTU21D;63958;52.004;5.908;2022-12-01T06:27:58;6.61;81.97
75376;HTU21D;63958;52.004;5.908;2022-12-01T06:30:27;6.59;82.02
75376;HTU21D;63958;52.004;5.908;2022-12-01T06:32:56;6.60;82.04
75376;HTU21D;63958;52.004;5.908;2022-12-01T06:35:27;6.60;82.08
75376;HTU21D;63958;52.004;5.908;2022-12-01T06:37:56;6.58;82.16
75376;HTU21D;63958;52.004;5.908;2022-12-01T06:40:25;6.60;82.20
75376;HTU21D;63958;52.004;5.908;2022-12-01T06:42:55;6.61;82.27
75376;HTU21D;63958;52.004;5.908;2022-12-01T06:45:26;6.61;82.29
75376;HTU21D;63958;52.004;5.908;2022-12-01T06:47:55;6.64;82.33
75376;HTU21D;63958;52.004;5.908;2022-12-01T06:50:27;6.67;82.35
75376;HTU21D;63958;52.004;5.908;2022-12-01T06:52:56;6.69;82.38
75376;HTU21D;63958;52.004;5.908;2022-12-01T06:55:25;6.71;82.45
75376;HTU21D;63958;52.004;5.908;2022-12-01T06:57:54;6.71;82.31
75376;HTU21D;63958;52.004;5.908;2022-12-01T07:00:23;6.71;82.26
75376;HTU21D;63958;52.004;5.908;2022-12-01T07:02:52;6.72;82.32
75376;HTU21D;63958;52.004;5.908;2022-12-01T07:05:20;6.73;82.37
75376;HTU21D;63958;52.004;5.908;2022-12-01T07:07:52;6.74;82.22
75376;HTU21D;63958;52.004;5.908;2022-12-01T07:10:21;6.73;82.21
75376;HTU21D;63958;52.004;5.908;2022-12-01T07:12:50;6.73;82.29
75376;HTU21D;63958;52.004;5.908;2022-12-01T07:15:18;6.72;82.36
75376;HTU21D;63958;52.004;5.908;2022-12-01T07:17:48;6.75;82.43
75376;HTU21D;63958;52.004;5.908;2022-12-01T07:20:17;6.76;82.30
75376;HTU21D;63958;52.004;5.908;2022-12-01T07:22:46;6.75;82.27
75376;HTU21D;63958;52.004;5.908;2022-12-01T07:25:17;6.75;82.29
75376;HTU21D;63958;52.004;5.908;2022-12-01T07:27:46;6.75;82.25
75376;HTU21D;63958;52.004;5.908;2022-12-01T07:30:15;6.74;82.22
75376;HTU21D;63958;52.004;5.908;2022-12-01T07:32:44;6.74;82.29
75376;HTU21D;63958;52.004;5.908;2022-12-01T07:35:13;6.74;82.34
75376;HTU21D;63958;52.004;5.908;2022-12-01T07:37:42;6.75;82.33
75376;HTU21D;63958;52.004;5.908;2022-12-01T07:40:11;6.78;82.36
75376;HTU21D;63958;52.004;5.908;2022-12-01T07:42:43;6.79;82.45
75376;HTU21D;63958;52.004;5.908;2022-12-01T07:45:12;6.81;82.49
75376;HTU21D;63958;52.004;5.908;2022-12-01T07:47:41;6.83;82.21
75376;HTU21D;63958;52.004;5.908;2022-12-01T07:50:10;6.83;82.26
75376;HTU21D;63958;52.004;5.908;2022-12-01T07:52:39;6.83;82.20
75376;HTU21D;63958;52.004;5.908;2022-12-01T07:55:08;6.82;82.07
75376;HTU21D;63958;52.004;5.908;2022-12-01T07:57:37;6.80;81.97
75376;HTU21D;63958;52.004;5.908;2022-12-01T08:00:10;6.80;82.02
75376;HTU21D;63958;52.004;5.908;2022-12-01T08:02:39;6.79;82.06
75376;HTU21D;63958;52.004;5.908;2022-12-01T08:05:08;6.80;82.04
75376;HTU21D;63958;52.004;5.908;2022-12-01T08:07:37;6.80;82.02
75376;HTU21D;63958;52.004;5.908;2022-12-01T08:10:07;6.83;82.17
75376;HTU21D;63958;52.004;5.908;2022-12-01T08:12:35;6.86;82.22
75376;HTU21D;63958;52.004;5.908;2022-12-01T08:15:05;6.87;82.20
75376;HTU21D;63958;52.004;5.908;2022-12-01T08:17:37;6.89;82.07
75376;HTU21D;63958;52.004;5.908;2022-12-01T08:20:07;6.91;82.01
75376;HTU21D;63958;52.004;5.908;2022-12-01T08:22:36;6.94;82.04
75376;HTU21D;63958;52.004;5.908;2022-12-01T08:25:06;6.96;81.72
75376;HTU21D;63958;52.004;5.908;2022-12-01T08:27:35;6.98;81.63
75376;HTU21D;63958;52.004;5.908;2022-12-01T08:30:05;6.96;81.64
75376;HTU21D;63958;52.004;5.908;2022-12-01T08:32:37;6.96;81.54
75376;HTU21D;63958;52.004;5.908;2022-12-01T08:35:07;6.97;81.73
75376;HTU21D;63958;52.004;5.908;2022-12-01T08:37:36;6.97;81.73
75376;HTU21D;63958;52.004;5.908;2022-12-01T08:40:06;6.98;81.37
75376;HTU21D;63958;52.004;5.908;2022-12-01T08:42:35;6.99;81.68
75376;HTU21D;63958;52.004;5.908;2022-12-01T08:45:05;7.00;81.60
75376;HTU21D;63958;52.004;5.908;2022-12-01T08:47:36;6.99;81.50
75376;HTU21D;63958;52.004;5.908;2022-12-01T08:50:06;6.99;81.62
75376;HTU21D;63958;52.004;5.908;2022-12-01T08:52:36;7.01;81.49
75376;HTU21D;63958;52.004;5.908;2022-12-01T08:55:06;7.02;81.62
75376;HTU21D;63958;52.004;5.908;2022-12-01T08:57:36;7.04;81.36
75376;HTU21D;63958;52.004;5.908;2022-12-01T09:00:06;7.05;81.51
75376;HTU21D;63958;52.004;5.908;2022-12-01T09:02:37;7.08;81.46
75376;HTU21D;63958;52.004;5.908;2022-12-01T09:05:07;7.10;81.40
